Latest Weather Observations for Port Lincoln Airport

IDS60801

Issued at 9:35 am CDT Saturday 25 October 2014 (issued every 30 minutes, with the page automatically refreshed every 10 minutes)

About weather observations | Map of weather stations | Latest weather observations for SA | Other Formats
Station Details ID: 018192 Name: PORT LINCOLN AWS Lat: -34.60 Lon: 135.88 Height: 8.5 m
Data from the previous 72 hours. | See also: Recent months at Port Lincoln Airport
Date/Time
CDT
Temp
°C
App
Temp
°C
Dew
Point
Rel
Hum
%
Delta-T
°C
Wind Press
QNH
hPa
Press
MSL
hPa
Rain
since 9 am
mm
Dir
 
Spd
km/h
Gust
km/h
Spd
kts
Gust
kts
25/09:30am 18.0 16.5 11.8 67 3.4 SSE 11 17 6 9 1018.3 1018.3 0.0
25/09:00am 17.0 15.8 11.5 70 3.0 SW 9 13 5 7 1018.3 1018.3 0.0
25/08:30am 16.5 15.4 11.9 74 2.5 SW 9 13 5 7 1018.4 1018.4 0.0
25/08:00am 16.0 14.9 12.0 77 2.2 WSW 9 11 5 6 1018.7 1018.7 0.0
25/07:37am 15.6 14.2 12.2 80 1.9 W 11 17 6 9 1018.8 1018.8 0.0
25/07:30am 15.5 14.2 12.6 83 1.6 W 11 15 6 8 1018.7 1018.7 0.0
25/07:00am 15.1 14.3 12.8 86 1.3 W 9 13 5 7 1018.5 1018.5 0.0
25/06:30am 14.9 13.6 12.4 85 1.4 W 11 15 6 8 1018.1 1018.1 0.0
25/06:00am 14.8 13.6 12.7 87 1.1 WSW 11 15 6 8 1017.3 1017.3 0.0
25/05:30am 14.9 13.7 12.8 87 1.2 SW 11 15 6 8 1017.3 1017.3 0.0
25/05:00am 15.0 14.2 13.0 88 1.1 SW 9 13 5 7 1016.7 1016.7 0.0
25/04:30am 14.9 13.8 13.1 89 1.0 SW 11 13 6 7 1016.7 1016.7 0.0
25/04:00am 14.6 13.9 13.1 91 0.8 SW 9 11 5 6 1016.4 1016.4 0.0
25/03:30am 14.7 13.4 13.6 93 0.6 SSW 13 17 7 9 1016.4 1016.4 0.0
25/03:00am 14.0 14.7 13.4 96 0.3 SW 2 13 1 7 1016.3 1016.3 0.0
25/02:30am 12.5 11.8 11.9 96 0.3 WSW 7 7 4 4 1016.1 1016.1 0.0
25/02:00am 11.5 10.0 10.7 95 0.4 WSW 9 9 5 5 1016.3 1016.3 0.0
25/01:55am 11.6 10.2 10.8 95 0.4 WSW 9 11 5 6 1016.3 1016.3 0.0
25/01:30am 11.3 9.8 10.4 94 0.5 SW 9 9 5 5 1016.6 1016.6 0.0
25/01:00am 11.9 10.9 11.0 94 0.5 WSW 7 9 4 5 1016.9 1016.9 0.0
25/12:30am 12.7 12.0 11.4 92 0.7 SW 6 11 3 6 1017.0 1017.0 0.0
25/12:00am 13.9 12.8 12.1 89 1.0 SW 9 11 5 6 1017.1 1017.1 0.0
 
Date/Time
CDT
Temp
°C
App
Temp
°C
Dew
Point
Rel
Hum
%
Delta-T
°C
Wind Press
QNH
hPa
Press
MSL
hPa
Rain
since 9 am
mm
Dir
 
Spd
km/h
Gust
km/h
Spd
kts
Gust
kts
24/11:30pm 15.0 12.8 13.2 89 1.0 S 17 20 9 11 1017.2 1017.2 0.0
24/11:13pm 15.3 12.5 13.3 88 1.1 S 20 24 11 13 1017.3 1017.3 0.0
24/11:00pm 15.3 12.6 13.5 89 1.0 S 20 26 11 14 1017.2 1017.2 0.0
24/10:35pm 14.4 12.9 13.0 91 0.8 SW 13 15 7 8 1017.2 1017.2 0.0
24/10:30pm 14.4 12.8 12.8 90 0.9 SW 13 17 7 9 1017.2 1017.2 0.0
24/10:00pm 14.3 12.7 12.7 90 0.9 SW 13 15 7 8 1017.1 1017.1 0.0
24/09:30pm 14.1 12.8 12.5 90 0.9 WSW 11 13 6 7 1016.7 1016.7 0.0
24/09:00pm 15.0 14.2 12.9 87 1.2 SW 9 11 5 6 1016.3 1016.3 0.0
24/08:59pm 15.1 14.3 13.0 87 1.2 SW 9 11 5 6 1016.3 1016.3 0.0
24/08:30pm 15.8 14.4 13.5 86 1.3 SSW 13 22 7 12 1015.9 1015.9 0.0
24/08:12pm 16.0 14.6 13.5 85 1.4 SSW 13 17 7 9 1015.6 1015.6 0.0
24/08:00pm 16.2 14.5 13.5 84 1.5 S 15 20 8 11 1015.5 1015.5 0.0
24/07:30pm 17.3 14.5 14.2 82 1.8 S 22 30 12 16 1015.1 1015.1 0.0
24/07:00pm 18.5 15.1 13.8 74 2.7 S 24 32 13 17 1014.6 1014.6 0.0
24/06:30pm 19.4 15.8 14.2 72 3.0 S 26 33 14 18 1014.2 1014.2 0.0
24/06:00pm 20.8 17.7 14.5 67 3.7 S 24 30 13 16 1013.8 1013.8 0.0
24/05:30pm 21.0 17.2 14.6 67 3.7 SSE 28 37 15 20 1013.7 1013.7 0.0
24/05:00pm 22.0 18.0 14.1 61 4.6 SSE 28 37 15 20 1013.4 1013.4 0.0
24/04:30pm 23.5 20.2 13.9 55 5.6 S 24 30 13 16 1013.2 1013.2 0.0
24/04:00pm 23.9 18.9 13.4 51 6.1 S 32 41 17 22 1013.0 1013.0 0.0
24/03:30pm 24.0 20.3 13.8 53 6.0 SSE 26 30 14 16 1013.2 1013.2 0.0
24/03:00pm 25.4 23.8 13.9 49 6.8 ESE 15 20 8 11 1013.4 1013.4 0.0
24/02:30pm 24.9 22.2 13.5 49 6.7 SE 20 28 11 15 1013.7 1013.7 0.0
24/02:00pm 23.9 20.5 13.7 53 6.0 SE 24 33 13 18 1013.5 1013.5 0.0
24/01:30pm 24.3 22.1 15.0 56 5.6 SE 20 28 11 15 1013.9 1013.9 0.0
24/01:00pm 25.5 24.5 14.6 51 6.5 E 13 17 7 9 1013.5 1013.5 0.0
24/12:30pm 25.3 23.5 14.4 50 6.5 ENE 17 20 9 11 1013.8 1013.8 0.0
24/12:00pm 26.8 25.6 13.9 45 7.7 ESE 13 20 7 11 1013.7 1013.7 0.0
24/11:30am 26.4 25.5 14.8 49 7.0 ENE 13 15 7 8 1014.0 1014.0 0.0
24/11:00am 24.8 24.1 15.4 56 5.7 ENE 13 15 7 8 1014.0 1014.0 0.0
24/10:30am 24.8 24.6 13.7 50 6.5 S 7 13 4 7 1013.9 1013.9 0.0
24/10:00am 23.1 23.2 14.4 58 5.1 SSE 7 11 4 6 1013.9 1013.9 0.0
24/09:30am 22.9 22.0 13.7 56 5.3 ESE 11 13 6 7 1014.0 1014.0 0.0
24/09:00am 21.9 21.3 13.5 59 4.8 E 9 11 5 6 1014.0 1014.0 0.0
24/08:30am 20.9 21.3 12.6 59 4.7 NE 2 9 1 5 1013.9 1013.9 0.0
24/08:00am 17.4 17.2 13.1 76 2.4 ESE 6 9 3 5 1013.7 1013.7 0.0
24/07:30am 13.8 14.3 11.7 87 1.1 CALM 0 7 0 4 1013.7 1013.7 0.0
24/07:00am 11.5 10.4 10.1 91 0.7 WNW 6 7 3 4 1013.7 1013.7 0.0
24/06:30am 11.3 10.0 9.9 91 0.7 WNW 7 11 4 6 1013.2 1013.2 0.0
24/06:00am 11.5 10.2 10.1 91 0.7 WNW 7 9 4 5 1012.4 1012.4 0.0
24/05:30am 12.1 11.2 10.5 90 0.8 WSW 6 9 3 5 1012.6 1012.6 0.0
24/05:00am 12.6 13.0 11.2 91 0.7 CALM 0 0 0 0 1012.3 1012.3 0.0
24/04:30am 11.8 12.0 10.4 91 0.7 CALM 0 0 0 0 1012.0 1012.0 0.0
24/04:00am 12.2 12.1 10.8 91 0.7 NW 2 7 1 4 1012.5 1012.5 0.0
24/03:30am 14.6 13.3 12.5 87 1.1 NNE 11 13 6 7 1012.3 1012.3 0.0
24/03:00am 15.4 14.7 13.1 86 1.3 NNE 9 13 5 7 1012.5 1012.5 0.0
24/02:30am 15.1 14.3 13.0 87 1.2 N 9 13 5 7 1012.9 1012.9 0.0
24/02:00am 14.8 13.6 12.7 87 1.2 NNE 11 15 6 8 1013.0 1013.0 0.0
24/01:30am 14.4 13.5 12.6 89 1.0 NNE 9 13 5 7 1013.4 1013.4 0.0
24/01:00am 14.0 13.9 12.2 89 1.0 NNE 4 7 2 4 1014.0 1014.0 0.0
24/12:30am 13.4 13.9 11.5 88 1.0 CALM 0 0 0 0 1014.2 1014.2 0.0
24/12:00am 13.3 13.7 11.2 87 1.1 CALM 0 0 0 0 1014.7 1014.7 0.0
 
Date/Time
CDT
Temp
°C
App
Temp
°C
Dew
Point
Rel
Hum
%
Delta-T
°C
Wind Press
QNH
hPa
Press
MSL
hPa
Rain
since 9 am
mm
Dir
 
Spd
km/h
Gust
km/h
Spd
kts
Gust
kts
23/11:30pm 13.7 12.5 11.7 88 1.1 N 9 11 5 6 1015.5 1015.5 0.0
23/11:00pm 13.3 12.4 11.4 88 1.0 NNW 7 9 4 5 1015.7 1015.7 0.0
23/10:30pm 13.2 12.3 11.4 89 1.0 N 7 7 4 4 1015.8 1015.8 0.0
23/10:00pm 12.9 12.1 11.1 89 0.9 NNW 6 7 3 4 1015.8 1015.8 0.0
23/09:30pm 12.2 12.3 10.3 88 1.0 CALM 0 0 0 0 1015.6 1015.6 0.0
23/09:00pm 12.6 12.7 10.3 86 1.2 CALM 0 0 0 0 1015.6 1015.6 0.0
23/08:30pm 13.6 14.0 11.1 85 1.3 CALM 0 0 0 0 1015.7 1015.7 0.0
23/08:00pm 14.4 14.5 11.6 83 1.5 E 2 7 1 4 1015.7 1015.7 0.0
23/07:30pm 15.6 14.5 12.0 79 2.0 E 9 11 5 6 1015.6 1015.6 0.0
23/07:00pm 16.9 15.9 12.2 74 2.6 ESE 9 13 5 7 1015.8 1015.8 0.0
23/06:30pm 17.0 15.2 12.1 73 2.7 ENE 13 17 7 9 1016.0 1016.0 0.0
23/06:00pm 18.0 16.2 12.2 69 3.2 ENE 13 17 7 9 1015.9 1015.9 0.0
23/05:30pm 18.2 16.9 11.3 64 3.8 ESE 9 15 5 8 1015.7 1015.7 0.0
23/05:00pm 18.3 16.2 11.1 63 3.9 SE 13 19 7 10 1015.6 1015.6 0.0
23/04:30pm 19.0 17.1 11.8 63 4.0 SE 13 20 7 11 1015.8 1015.8 0.0
23/04:00pm 18.6 15.5 11.7 64 3.8 SSE 19 22 10 12 1015.8 1015.8 0.0
23/03:30pm 18.7 16.0 11.8 64 3.8 SSE 17 22 9 12 1016.2 1016.2 0.0
23/03:00pm 19.3 16.6 11.6 61 4.2 E 17 20 9 11 1016.4 1016.4 0.0
23/02:30pm 18.9 15.8 11.5 62 4.1 E 19 24 10 13 1016.4 1016.4 0.0
23/02:00pm 18.7 15.7 11.8 64 3.8 E 19 26 10 14 1016.7 1016.7 0.0
23/01:30pm 19.0 16.7 11.6 62 4.1 ENE 15 20 8 11 1017.3 1017.3 0.0
23/01:00pm 18.2 15.8 11.5 65 3.7 E 15 20 8 11 1017.6 1017.6 0.0
23/12:30pm 17.7 15.1 11.9 69 3.2 E 17 22 9 12 1018.0 1018.0 0.0
23/12:00pm 18.0 15.0 12.0 68 3.3 E 19 26 10 14 1018.0 1018.0 0.0
23/11:30am 17.3 14.1 12.0 71 2.9 E 20 26 11 14 1018.3 1018.3 0.0
23/11:00am 17.4 14.9 12.3 72 2.8 E 17 20 9 11 1018.7 1018.7 0.0
23/10:30am 16.7 13.4 11.6 72 2.8 E 20 24 11 13 1018.9 1018.9 0.0
23/10:00am 16.6 14.3 11.9 74 2.6 E 15 20 8 11 1019.0 1019.0 0.0
23/09:50am 16.2 13.5 11.6 74 2.5 ESE 17 20 9 11 1019.0 1019.0 0.0
23/09:30am 16.1 12.8 11.5 74 2.5 ESE 20 24 11 13 1019.2 1019.2 0.0
23/09:00am 15.6 12.5 11.6 77 2.2 E 19 24 10 13 1019.2 1019.2 0.0
23/08:30am 15.4 12.2 11.2 76 2.2 ESE 19 26 10 14 1019.4 1019.4 0.0
23/08:00am 15.2 11.8 11.4 78 2.0 E 20 24 11 13 1019.1 1019.1 0.0
23/07:30am 15.0 11.8 11.4 79 1.9 ESE 19 24 10 13 1019.1 1019.1 0.0
23/07:00am 14.8 12.1 11.6 81 1.7 ESE 17 24 9 13 1019.2 1019.2 0.0
23/06:30am 14.6 11.9 11.6 82 1.6 ESE 17 22 9 12 1019.2 1019.2 0.0
23/06:00am 14.5 12.6 11.8 84 1.4 SE 13 19 7 10 1019.2 1019.2 0.0
23/05:30am 14.3 11.9 11.5 83 1.5 SE 15 20 8 11 1019.2 1019.2 0.0
23/05:00am 14.3 11.6 11.8 85 1.3 ESE 17 20 9 11 1019.1 1019.1 0.0
23/04:30am 14.3 11.2 11.5 83 1.5 ESE 19 22 10 12 1019.2 1019.2 0.0
23/04:00am 14.3 12.3 11.6 84 1.4 SE 13 20 7 11 1019.5 1019.5 0.0
23/03:30am 14.4 12.1 11.6 83 1.5 ESE 15 20 8 11 1019.6 1019.6 0.0
23/03:00am 14.6 11.3 11.6 82 1.6 SE 20 28 11 15 1020.0 1020.0 0.0
23/02:30am 14.4 10.7 11.4 82 1.6 SSE 22 28 12 15 1020.3 1020.3 0.0
23/02:00am 14.8 11.8 12.1 84 1.5 SE 19 22 10 12 1020.6 1020.6 0.0
23/01:30am 14.6 11.3 11.7 83 1.6 SE 20 30 11 16 1020.9 1020.9 0.0
23/01:00am 14.9 12.4 12.2 84 1.5 SSE 17 24 9 13 1021.1 1021.1 0.0
23/12:30am 14.9 11.8 12.2 84 1.5 SSE 20 26 11 14 1021.4 1021.4 0.0
23/12:00am 14.9 11.8 12.2 84 1.5 SSE 20 26 11 14 1021.7 1021.7 0.0
 
Date/Time
CDT
Temp
°C
App
Temp
°C
Dew
Point
Rel
Hum
%
Delta-T
°C
Wind Press
QNH
hPa
Press
MSL
hPa
Rain
since 9 am
mm
Dir
 
Spd
km/h
Gust
km/h
Spd
kts
Gust
kts
22/11:30pm 14.7 10.8 12.0 84 1.5 SSE 24 30 13 16 1021.7 1021.7 0.0
22/11:00pm 15.0 11.2 12.3 84 1.5 SSE 24 30 13 16 1021.6 1021.6 0.0
22/10:30pm 14.8 11.0 12.3 85 1.4 SSE 24 30 13 16 1021.7 1021.7 0.0
22/10:00pm 14.8 11.3 12.3 85 1.4 SSE 22 28 12 15 1021.7 1021.7 0.0
22/09:30pm 14.7 10.8 12.0 84 1.5 SSE 24 32 13 17 1021.6 1021.6 0.0
22/09:00pm 14.5 10.1 11.6 83 1.5 SSE 26 32 14 17 1021.6 1021.6 0.0
22/08:30pm 14.8 10.9 12.1 84 1.5 S 24 32 13 17 1021.5 1021.5 0.0
22/08:00pm 14.7 9.6 12.0 84 1.5 S 30 35 16 19 1021.2 1021.2 0.0
22/07:30pm 15.1 10.1 12.1 82 1.6 S 30 37 16 20 1021.0 1021.0 0.0
22/07:00pm 15.7 11.1 12.3 80 1.9 S 28 35 15 19 1021.0 1021.0 0.0
22/06:30pm 16.0 11.4 12.4 79 2.0 S 28 37 15 20 1020.7 1020.7 0.0
22/06:00pm 16.2 11.7 12.6 79 2.0 S 28 35 15 19 1020.8 1020.8 0.0
22/05:30pm 17.2 12.3 12.7 75 2.5 S 30 41 16 22 1020.6 1020.6 0.0
22/05:00pm 17.5 12.7 12.8 74 2.6 S 30 37 16 20 1020.4 1020.4 0.0
22/04:33pm 18.2 12.5 12.9 71 3.0 S 35 44 19 24 1020.4 1020.4 0.0
22/04:30pm 18.4 12.6 12.8 70 3.1 S 35 43 19 23 1020.4 1020.4 0.0
22/04:00pm 18.3 12.4 12.5 69 3.2 S 35 44 19 24 1020.1 1020.1 0.0
22/03:30pm 18.6 13.1 12.6 68 3.3 S 33 41 18 22 1020.2 1020.2 0.0
22/03:00pm 18.8 13.3 12.5 67 3.5 S 33 43 18 23 1020.4 1020.4 0.0
22/02:30pm 18.7 13.5 12.7 68 3.4 S 32 37 17 20 1020.5 1020.5 0.0
22/02:00pm 19.1 13.9 12.8 67 3.5 S 32 41 17 22 1020.7 1020.7 0.0
22/01:30pm 18.8 13.4 12.8 68 3.4 S 33 43 18 23 1020.9 1020.9 0.0
22/01:00pm 19.2 14.1 13.6 70 3.2 S 33 39 18 21 1021.0 1021.0 0.0
22/12:30pm 18.7 14.4 13.3 71 3.0 S 28 35 15 19 1020.9 1020.9 0.0
22/12:18pm 17.9 13.2 13.2 74 2.6 S 30 37 16 20 1020.9 1020.9 0.0
22/12:00pm 17.9 12.9 13.4 75 2.5 S 32 37 17 20 1020.9 1020.9 0.0
22/11:30am 18.7 14.9 13.6 72 2.9 S 26 35 14 19 1021.0 1021.0 0.0
22/11:00am 18.0 13.7 13.1 73 2.8 S 28 35 15 19 1021.1 1021.1 0.0
22/10:30am 17.2 12.1 13.1 77 2.3 SSW 32 39 17 21 1021.2 1021.2 0.0
22/10:00am 18.3 14.8 13.4 73 2.8 SSW 24 32 13 17 1020.7 1020.7 0.0

Other Formats:

Comma delimited format used in spreadsheet applications
http://www.bom.gov.au/fwo/IDS60801/IDS60801.95661.axf

JavaScript Object Notation format (JSON) in row-major order
http://www.bom.gov.au/fwo/IDS60801/IDS60801.95661.json